Owatonna, Minnesota
Current Conditions -  °F | °C
As of 10:55 AM on Friday 28 Nov 2014 (Local Time) from KOWA Reporting Station
Clear Clear  
Wind Chill:   Ceiling: Unl
Heat Index: 19°   Visibility: 10mi
Dew Point: 12°   Wind: 13mph
Humidity: 74%   Direction: 150°SSE
Pressure: 29.92"   Gusts: NA
Location:  44.09°N, 93.23°W
Report Text: KOWA 281655Z AUTO 15011KT 10SM CLR M07/M11 A2992 RMK AO2
Loading
Personal Weather Stations






























Interactive Weather Map New forecast layout! Learn more

10-Day Weather Forecast

Advertisements
Track Severe Weather on mobile